createdAt,value
2018-12-15T00:00:07.976Z,98.90
2018-12-15T00:02:37.025Z,98.90
2018-12-15T00:05:06.591Z,98.90
2018-12-15T00:07:35.660Z,98.80
2018-12-15T00:10:05.740Z,98.80
2018-12-15T00:12:34.805Z,98.80
2018-12-15T00:15:04.684Z,98.80
2018-12-15T00:17:33.760Z,98.90
2018-12-15T00:20:02.829Z,99.00
2018-12-15T00:22:31.921Z,99.00
2018-12-15T00:25:00.962Z,98.90
2018-12-15T00:27:30.032Z,98.70
2018-12-15T00:29:59.105Z,98.70
2018-12-15T00:32:28.147Z,98.80
2018-12-15T00:34:57.189Z,98.90
2018-12-15T00:37:26.281Z,99.00
2018-12-15T00:39:55.323Z,98.80
2018-12-15T00:42:33.290Z,98.50
2018-12-15T00:45:02.475Z,98.20
2018-12-15T00:47:31.517Z,98.20
2018-12-15T00:50:00.632Z,98.20
2018-12-15T00:52:29.811Z,98.20
2018-12-15T00:54:58.849Z,98.50
2018-12-15T00:57:27.901Z,98.20
2018-12-15T00:59:56.966Z,98.50
2018-12-15T01:02:27.026Z,98.20
2018-12-15T01:04:56.112Z,98.40
2018-12-15T01:07:25.205Z,98.60
2018-12-15T01:09:54.251Z,98.70
2018-12-15T01:12:23.316Z,98.70
2018-12-15T01:14:52.363Z,98.70
2018-12-15T01:17:21.423Z,98.60
2018-12-15T01:19:50.496Z,98.50
2018-12-15T01:22:19.538Z,98.30
2018-12-15T01:24:48.670Z,98.60
2018-12-15T01:27:17.713Z,98.40
2018-12-15T01:29:46.818Z,98.50
2018-12-15T01:32:15.859Z,98.50
2018-12-15T01:34:44.913Z,98.50
2018-12-15T01:37:13.952Z,98.40
2018-12-15T01:39:43.034Z,98.50
2018-12-15T01:42:12.071Z,98.50
2018-12-15T01:44:41.736Z,98.70
2018-12-15T01:47:10.787Z,98.80
2018-12-15T01:49:39.861Z,98.80
2018-12-15T01:52:08.927Z,98.80
2018-12-15T01:54:37.993Z,98.70
2018-12-15T01:57:07.768Z,98.60
2018-12-15T01:59:36.836Z,98.40
2018-12-15T02:02:05.909Z,98.50
2018-12-15T02:04:34.989Z,98.60
2018-12-15T02:07:04.111Z,98.70
2018-12-15T02:09:33.167Z,98.70
2018-12-15T02:12:02.209Z,98.70
2018-12-15T02:14:31.300Z,98.70
2018-12-15T02:17:00.334Z,98.70
2018-12-15T02:19:29.404Z,98.80
2018-12-15T02:21:58.446Z,98.70
2018-12-15T02:24:27.512Z,98.80
2018-12-15T02:26:56.572Z,98.80
2018-12-15T02:29:25.650Z,98.80
2018-12-15T02:31:54.728Z,98.80
2018-12-15T02:34:23.824Z,98.70
2018-12-15T02:36:52.873Z,98.80
2018-12-15T02:39:21.942Z,98.80
2018-12-15T02:41:51.000Z,98.90
2018-12-15T02:44:20.123Z,98.90
2018-12-15T02:46:49.181Z,99.00
2018-12-15T02:49:18.247Z,99.00
2018-12-15T02:51:47.309Z,99.00
2018-12-15T02:54:16.391Z,99.00
2018-12-15T02:56:45.462Z,99.00
2018-12-15T02:59:14.510Z,99.00
2018-12-15T03:01:43.606Z,99.10
2018-12-15T03:04:12.734Z,99.10
2018-12-15T03:06:41.778Z,99.20
2018-12-15T03:09:10.839Z,99.20
2018-12-15T03:11:40.778Z,99.10
2018-12-15T03:14:09.813Z,99.10
2018-12-15T03:16:42.787Z,99.00
2018-12-15T03:19:11.993Z,99.00
2018-12-15T03:21:41.079Z,99.00
2018-12-15T03:24:10.165Z,99.00
2018-12-15T03:26:39.242Z,98.90
2018-12-15T03:29:08.284Z,98.90
2018-12-15T03:31:37.356Z,99.00
2018-12-15T03:34:06.389Z,99.10
2018-12-15T03:36:35.459Z,99.40
2018-12-15T03:39:05.682Z,98.90
2018-12-15T03:41:34.922Z,99.00
2018-12-15T03:44:03.949Z,99.10
2018-12-15T03:46:33.012Z,99.00
2018-12-15T03:49:02.104Z,99.00
2018-12-15T03:51:31.212Z,99.10
2018-12-15T03:54:01.191Z,99.10
2018-12-15T03:56:30.256Z,99.30
2018-12-15T03:58:59.313Z,99.10
2018-12-15T04:01:28.413Z,99.10
2018-12-15T04:03:57.480Z,98.90
2018-12-15T04:06:26.545Z,98.90
2018-12-15T04:08:55.598Z,98.90
2018-12-15T04:11:24.668Z,99.00
2018-12-15T04:13:53.761Z,99.00
2018-12-15T04:16:22.790Z,99.20
2018-12-15T04:18:51.868Z,99.30
2018-12-15T04:21:20.915Z,99.20
2018-12-15T04:23:49.952Z,99.30
2018-12-15T04:26:19.038Z,99.30
2018-12-15T04:28:48.073Z,99.20
2018-12-15T04:31:17.166Z,99.00
2018-12-15T04:33:46.250Z,99.10
2018-12-15T04:36:16.806Z,99.20
2018-12-15T04:38:45.870Z,99.30
2018-12-15T04:41:14.947Z,99.20
2018-12-15T04:43:44.054Z,99.00
2018-12-15T04:46:13.180Z,99.10
2018-12-15T04:48:42.343Z,99.20
2018-12-15T04:51:11.439Z,99.20
2018-12-15T04:53:40.477Z,99.20
2018-12-15T04:56:09.560Z,99.20
2018-12-15T04:58:38.800Z,99.20
2018-12-15T05:01:07.865Z,99.30
2018-12-15T05:03:36.973Z,99.30
2018-12-15T05:06:06.040Z,99.20
2018-12-15T05:08:35.115Z,99.30
2018-12-15T05:11:04.213Z,99.30
2018-12-15T05:13:33.286Z,99.10
2018-12-15T05:16:02.333Z,99.20
2018-12-15T05:18:31.398Z,98.80
2018-12-15T05:21:00.507Z,98.70
2018-12-15T05:23:29.577Z,98.60
2018-12-15T05:25:58.627Z,98.60
2018-12-15T05:28:27.690Z,98.70
2018-12-15T05:30:57.549Z,98.70
2018-12-15T05:33:26.713Z,98.70
2018-12-15T05:35:55.758Z,98.70
2018-12-15T05:38:24.789Z,98.80
2018-12-15T05:40:57.881Z,98.80
2018-12-15T05:43:26.929Z,98.80
2018-12-15T05:45:55.997Z,98.70
2018-12-15T05:48:25.567Z,98.80
2018-12-15T05:50:54.793Z,99.00
2018-12-15T05:53:23.871Z,99.00
2018-12-15T05:55:52.945Z,99.00
2018-12-15T05:58:22.022Z,99.20
2018-12-15T06:00:51.061Z,99.30
2018-12-15T06:03:20.136Z,99.50
2018-12-15T06:05:49.180Z,99.40
2018-12-15T06:08:18.249Z,99.40
2018-12-15T06:10:47.332Z,99.40
2018-12-15T06:13:16.394Z,99.40
2018-12-15T06:15:45.497Z,99.60
2018-12-15T06:18:14.536Z,99.60
2018-12-15T06:20:43.697Z,99.60
2018-12-15T06:23:12.751Z,99.70
2018-12-15T06:25:41.817Z,99.90
2018-12-15T06:28:10.859Z,99.90
2018-12-15T06:30:39.937Z,99.90
2018-12-15T06:33:09.012Z,99.90
2018-12-15T06:35:38.101Z,99.60
2018-12-15T06:38:07.166Z,99.50
2018-12-15T06:40:36.212Z,99.50
2018-12-15T06:43:05.278Z,99.70
2018-12-15T06:45:34.324Z,99.80
2018-12-15T06:48:03.474Z,99.80
2018-12-15T06:50:32.535Z,99.90
2018-12-15T06:53:01.584Z,99.90
2018-12-15T06:55:30.649Z,99.80
2018-12-15T06:57:59.718Z,99.60
2018-12-15T07:00:28.759Z,99.40
2018-12-15T07:02:57.825Z,99.40
2018-12-15T07:05:26.877Z,99.40
2018-12-15T07:07:55.973Z,99.40
2018-12-15T07:10:25.044Z,99.30
2018-12-15T07:12:54.084Z,99.60
2018-12-15T07:15:23.167Z,99.20
2018-12-15T07:17:52.206Z,99.20
2018-12-15T07:20:21.278Z,98.90
2018-12-15T07:22:50.365Z,98.90
2018-12-15T07:25:19.585Z,98.90
2018-12-15T07:27:48.632Z,99.00
2018-12-15T07:30:17.686Z,99.00
2018-12-15T07:32:46.749Z,98.70
2018-12-15T07:35:15.807Z,98.50
2018-12-15T07:37:44.886Z,98.50
2018-12-15T07:40:14.619Z,98.40
2018-12-15T07:42:43.677Z,98.50
2018-12-15T07:45:12.808Z,98.50
2018-12-15T07:47:41.850Z,98.40
2018-12-15T07:50:10.920Z,98.30
2018-12-15T07:52:40.031Z,98.40
2018-12-15T07:55:09.157Z,98.50
2018-12-15T07:57:38.201Z,98.40
2018-12-15T08:00:09.381Z,98.30
2018-12-15T08:02:38.430Z,98.20
2018-12-15T08:05:07.553Z,97.90
2018-12-15T08:07:36.726Z,97.70
2018-12-15T08:10:07.171Z,97.70
2018-12-15T08:12:39.061Z,97.80
2018-12-15T08:15:08.546Z,97.90
2018-12-15T08:17:37.664Z,97.60
2018-12-15T08:20:07.339Z,97.50
2018-12-15T08:22:36.405Z,97.70
2018-12-15T08:25:06.197Z,97.80
2018-12-15T08:27:35.907Z,97.80
2018-12-15T08:30:08.441Z,97.80
2018-12-15T08:32:37.504Z,97.80
2018-12-15T08:35:06.689Z,97.90
2018-12-15T08:37:35.865Z,97.60
2018-12-15T08:40:05.444Z,97.30
2018-12-15T08:42:34.607Z,97.00
2018-12-15T08:45:03.804Z,97.00
2018-12-15T08:47:32.897Z,97.00
2018-12-15T08:50:01.938Z,97.00
2018-12-15T08:52:31.019Z,96.80
2018-12-15T08:55:00.092Z,96.70
2018-12-15T08:57:29.137Z,96.70
2018-12-15T08:59:58.203Z,96.80
2018-12-15T09:02:27.248Z,96.90
2018-12-15T09:04:56.351Z,97.40
2018-12-15T09:07:25.394Z,97.40
2018-12-15T09:09:54.469Z,97.10
2018-12-15T09:12:23.526Z,96.90
2018-12-15T09:14:52.650Z,97.20
2018-12-15T09:17:21.705Z,97.20
2018-12-15T09:19:50.781Z,97.30
2018-12-15T09:22:19.854Z,97.30
2018-12-15T09:24:48.921Z,97.20
2018-12-15T09:27:17.957Z,97.50
2018-12-15T09:29:46.992Z,97.60
2018-12-15T09:32:16.085Z,97.00
2018-12-15T09:34:45.182Z,96.70
2018-12-15T09:37:14.218Z,96.90
2018-12-15T09:39:43.296Z,96.60
2018-12-15T09:42:12.457Z,96.20
2018-12-15T09:44:41.498Z,96.50
2018-12-15T09:47:10.561Z,96.70
2018-12-15T09:49:39.663Z,96.50
2018-12-15T09:52:08.739Z,96.40
2018-12-15T09:54:37.822Z,96.70
2018-12-15T09:57:06.961Z,96.20
2018-12-15T09:59:36.012Z,96.30
2018-12-15T10:02:05.115Z,95.90
2018-12-15T10:04:34.264Z,96.10
2018-12-15T10:07:03.406Z,96.00
2018-12-15T10:09:32.457Z,96.00
2018-12-15T10:12:01.522Z,96.00
2018-12-15T10:14:30.565Z,96.10
2018-12-15T10:16:59.675Z,96.00
2018-12-15T10:19:28.787Z,96.00
2018-12-15T10:21:57.848Z,95.90
2018-12-15T10:24:27.001Z,95.80
2018-12-15T10:26:56.041Z,95.60
2018-12-15T10:29:30.582Z,95.70
2018-12-15T10:32:05.173Z,95.80
2018-12-15T10:34:34.233Z,95.90
2018-12-15T10:37:04.458Z,95.80
2018-12-15T10:39:33.733Z,95.30
2018-12-15T10:42:02.799Z,95.00
2018-12-15T10:44:31.841Z,94.70
2018-12-15T10:47:00.928Z,94.50
2018-12-15T10:49:30.799Z,93.90
2018-12-15T10:52:00.060Z,93.90
2018-12-15T10:54:29.084Z,94.10
2018-12-15T10:56:58.142Z,94.00
2018-12-15T10:59:27.198Z,94.20
2018-12-15T11:01:56.246Z,94.00
2018-12-15T11:04:25.298Z,94.10
2018-12-15T11:06:54.321Z,94.10
2018-12-15T11:09:23.392Z,94.00
2018-12-15T11:11:52.412Z,93.90
2018-12-15T11:14:21.468Z,93.40
2018-12-15T11:16:50.613Z,93.30
2018-12-15T11:19:19.640Z,93.00
2018-12-15T11:21:48.709Z,93.40
2018-12-15T11:24:17.788Z,93.00
2018-12-15T11:26:46.851Z,92.70
2018-12-15T11:29:15.886Z,92.90
2018-12-15T11:31:44.941Z,92.60
2018-12-15T11:34:14.750Z,92.90
2018-12-15T11:36:43.804Z,92.90
2018-12-15T11:39:12.824Z,93.10
2018-12-15T11:41:41.884Z,93.50
2018-12-15T11:44:10.927Z,93.60
2018-12-15T11:46:39.954Z,93.50
2018-12-15T11:49:09.011Z,93.60
2018-12-15T11:51:38.037Z,93.90
2018-12-15T11:54:07.199Z,93.90
2018-12-15T11:56:36.240Z,93.90
2018-12-15T11:59:05.460Z,94.10
2018-12-15T12:01:34.483Z,94.20
2018-12-15T12:04:03.547Z,94.10
2018-12-15T12:06:32.606Z,94.60
2018-12-15T12:09:01.629Z,94.80
2018-12-15T12:11:30.693Z,94.80
2018-12-15T12:14:00.496Z,94.90
2018-12-15T12:16:29.687Z,95.20
2018-12-15T12:18:58.709Z,95.00
2018-12-15T12:21:27.759Z,95.10
2018-12-15T12:23:56.817Z,95.10
2018-12-15T12:26:25.853Z,94.90
2018-12-15T12:28:54.902Z,95.20
2018-12-15T12:31:23.946Z,95.50
2018-12-15T12:33:52.996Z,95.50
2018-12-15T12:36:22.194Z,95.70
2018-12-15T12:38:52.242Z,95.90
2018-12-15T12:41:21.494Z,96.10
2018-12-15T12:43:50.666Z,96.30
2018-12-15T12:46:19.697Z,96.30
2018-12-15T12:48:48.749Z,96.20
2018-12-15T12:51:17.824Z,96.40
2018-12-15T12:53:46.858Z,96.70
2018-12-15T12:56:15.935Z,97.00
2018-12-15T12:58:44.981Z,97.20
2018-12-15T13:01:14.039Z,97.40
2018-12-15T13:03:43.073Z,97.70
2018-12-15T13:06:12.138Z,97.80
2018-12-15T13:08:41.181Z,97.90
2018-12-15T13:11:10.246Z,97.80
2018-12-15T13:13:39.302Z,97.70
2018-12-15T13:16:08.369Z,97.90
2018-12-15T13:18:37.400Z,97.80
2018-12-15T13:21:07.136Z,98.00
2018-12-15T13:23:36.192Z,98.10
2018-12-15T13:26:05.320Z,98.20
2018-12-15T13:28:34.449Z,98.30
2018-12-15T13:31:03.515Z,98.20
2018-12-15T13:33:34.542Z,98.10
2018-12-15T13:38:47.750Z,98.30
2018-12-15T13:41:16.828Z,98.30
2018-12-15T13:43:45.857Z,98.30
2018-12-15T13:46:14.933Z,98.50
2018-12-15T13:48:43.982Z,98.60
2018-12-15T13:51:13.046Z,98.60
2018-12-15T13:53:42.120Z,98.60
2018-12-15T13:56:11.220Z,98.80
2018-12-15T13:58:40.279Z,99.00
2018-12-15T14:01:09.359Z,99.30
2018-12-15T14:03:38.449Z,99.40
2018-12-15T14:06:07.477Z,99.30
2018-12-15T14:08:36.538Z,99.30
2018-12-15T14:11:05.610Z,99.30
2018-12-15T14:13:34.682Z,99.30
2018-12-15T14:16:03.713Z,99.30
2018-12-15T14:18:32.753Z,99.30
2018-12-15T14:21:01.906Z,99.00
2018-12-15T14:23:31.380Z,98.70
2018-12-15T14:26:02.585Z,98.30
2018-12-15T14:28:31.644Z,97.70
2018-12-15T14:31:00.712Z,97.70
2018-12-15T14:33:29.772Z,97.70
2018-12-15T14:35:58.840Z,97.90
2018-12-15T14:38:28.685Z,98.00
2018-12-15T14:40:57.890Z,98.20
2018-12-15T14:43:26.997Z,98.20
2018-12-15T14:45:56.071Z,98.20
2018-12-15T14:48:25.231Z,98.60
2018-12-15T14:50:54.269Z,98.30
2018-12-15T14:53:23.296Z,98.40
2018-12-15T14:55:52.529Z,98.30
2018-12-15T14:58:21.589Z,98.50
2018-12-15T15:00:50.636Z,98.60
2018-12-15T15:03:19.730Z,98.80
2018-12-15T15:05:48.782Z,99.00
2018-12-15T15:08:17.849Z,99.00
2018-12-15T15:10:46.882Z,98.90
2018-12-15T15:13:15.945Z,98.80
2018-12-15T15:15:44.991Z,99.10
2018-12-15T15:18:14.050Z,99.20
2018-12-15T15:20:43.109Z,99.30
2018-12-15T15:23:12.183Z,99.40
2018-12-15T15:25:41.253Z,99.50
2018-12-15T15:28:10.301Z,99.50
2018-12-15T15:30:39.376Z,99.70
2018-12-15T15:33:08.411Z,99.90
2018-12-15T15:35:37.482Z,99.90
2018-12-15T15:38:06.534Z,99.80
2018-12-15T15:40:35.592Z,99.60
2018-12-15T15:43:04.689Z,99.50
2018-12-15T15:45:33.756Z,99.30
2018-12-15T15:48:02.809Z,99.30
2018-12-15T15:50:36.492Z,99.30
2018-12-15T15:53:02.909Z,99.40
2018-12-15T15:55:32.008Z,99.40
2018-12-15T15:58:01.056Z,99.80
2018-12-15T16:00:30.114Z,99.90
2018-12-15T16:02:59.296Z,99.90
2018-12-15T16:05:28.695Z,99.90
2018-12-15T16:07:57.761Z,99.90
2018-12-15T16:10:26.821Z,99.90
2018-12-15T16:12:55.889Z,99.90
2018-12-15T16:15:25.085Z,99.90
2018-12-15T16:17:54.124Z,99.90
2018-12-15T16:20:23.270Z,99.90
2018-12-15T16:22:52.384Z,99.90
2018-12-15T16:25:21.512Z,99.90
2018-12-15T16:27:50.587Z,99.90
2018-12-15T16:30:19.696Z,99.90
2018-12-15T16:32:48.763Z,99.90
2018-12-15T16:35:17.797Z,99.90
2018-12-15T16:37:46.878Z,99.90
2018-12-15T16:40:15.991Z,99.90
2018-12-15T16:42:45.063Z,99.90
2018-12-15T16:45:14.105Z,99.90
2018-12-15T16:47:43.191Z,99.90
2018-12-15T16:50:12.377Z,99.90
2018-12-15T16:52:41.965Z,99.90
2018-12-15T16:55:11.571Z,99.90
2018-12-15T16:57:40.605Z,99.90
2018-12-15T17:00:10.748Z,99.90
2018-12-15T17:02:39.816Z,99.90
2018-12-15T17:05:09.098Z,99.90
2018-12-15T17:07:38.184Z,99.90
2018-12-15T17:10:07.598Z,99.90
2018-12-15T17:12:36.655Z,99.90
2018-12-15T17:15:07.022Z,99.90
2018-12-15T17:17:36.106Z,99.90
2018-12-15T17:20:08.539Z,99.90
2018-12-15T17:22:37.857Z,99.90
2018-12-15T17:25:08.729Z,99.90
2018-12-15T17:27:37.865Z,99.90
2018-12-15T17:30:08.491Z,99.90
2018-12-15T17:32:37.563Z,99.90
2018-12-15T17:35:06.710Z,99.90
2018-12-15T17:37:35.840Z,99.90
2018-12-15T17:40:07.586Z,99.90
2018-12-15T17:42:36.660Z,99.90
2018-12-15T17:45:06.855Z,99.90
2018-12-15T17:47:40.016Z,99.90
2018-12-15T17:50:09.324Z,99.90
2018-12-15T17:52:38.403Z,99.90
2018-12-15T17:55:07.575Z,99.90
2018-12-15T17:57:36.646Z,99.90
2018-12-15T18:00:09.213Z,99.90
2018-12-15T18:02:38.270Z,99.90
2018-12-15T18:05:07.444Z,99.90
2018-12-15T18:07:36.597Z,99.90
2018-12-15T18:10:07.925Z,99.90
2018-12-15T18:12:36.993Z,99.90
2018-12-15T18:15:06.534Z,99.90
2018-12-15T18:17:35.666Z,99.90
2018-12-15T18:20:06.197Z,99.90
2018-12-15T18:22:35.269Z,99.90
2018-12-15T18:25:05.059Z,99.90
2018-12-15T18:27:34.121Z,99.90
2018-12-15T18:30:05.401Z,99.90
2018-12-15T18:32:35.010Z,99.90
2018-12-15T18:35:04.325Z,99.90
2018-12-15T18:37:33.342Z,99.90
2018-12-15T18:40:02.417Z,99.90
2018-12-15T18:42:31.460Z,99.90
2018-12-15T18:45:00.546Z,99.90
2018-12-15T18:47:29.578Z,99.90
2018-12-15T18:49:58.653Z,99.90
2018-12-15T18:52:27.729Z,99.90
2018-12-15T18:54:56.769Z,99.90
2018-12-15T18:57:25.829Z,99.90
2018-12-15T18:59:54.939Z,99.90
2018-12-15T19:02:23.990Z,99.90
2018-12-15T19:04:53.029Z,99.90
2018-12-15T19:07:22.090Z,99.90
2018-12-15T19:09:51.142Z,99.90
2018-12-15T19:12:20.212Z,99.90
2018-12-15T19:14:49.253Z,99.90
2018-12-15T19:17:18.394Z,99.90
2018-12-15T19:19:47.525Z,99.90
2018-12-15T19:22:16.592Z,99.90
2018-12-15T19:24:45.669Z,99.90
2018-12-15T19:27:14.725Z,99.90
2018-12-15T19:29:43.786Z,99.90
2018-12-15T19:32:12.835Z,99.90
2018-12-15T19:34:41.942Z,99.90
2018-12-15T19:37:10.980Z,99.90
2018-12-15T19:39:40.138Z,99.90
2018-12-15T19:42:09.192Z,99.90
2018-12-15T19:44:38.274Z,99.90
2018-12-15T19:47:07.321Z,99.90
2018-12-15T19:49:37.225Z,99.90
2018-12-15T19:52:06.343Z,99.90
2018-12-15T19:54:35.521Z,99.90
2018-12-15T19:57:04.719Z,99.90
2018-12-15T19:59:33.776Z,99.90
2018-12-15T20:02:02.948Z,99.90
2018-12-15T20:04:31.986Z,99.90
2018-12-15T20:07:01.036Z,99.90
2018-12-15T20:09:30.112Z,99.90
2018-12-15T20:11:59.178Z,99.90
2018-12-15T20:14:28.281Z,99.90
2018-12-15T20:16:57.357Z,99.90
2018-12-15T20:19:26.398Z,99.90
2018-12-15T20:21:55.437Z,99.90
2018-12-15T20:24:24.523Z,99.90
2018-12-15T20:26:53.585Z,99.90
2018-12-15T20:29:22.743Z,99.90
2018-12-15T20:31:51.788Z,99.90
2018-12-15T20:34:20.817Z,99.90
2018-12-15T20:36:49.889Z,99.90
2018-12-15T20:39:18.926Z,99.90
2018-12-15T20:41:48.001Z,99.90
2018-12-15T20:44:17.065Z,99.90
2018-12-15T20:46:46.112Z,99.90
2018-12-15T20:49:15.216Z,99.90
2018-12-15T20:51:44.243Z,99.90
2018-12-15T20:54:18.021Z,99.90
2018-12-15T20:56:47.061Z,99.90
2018-12-15T20:59:16.117Z,99.90
2018-12-15T21:01:45.250Z,99.90
2018-12-15T21:04:14.300Z,99.90
2018-12-15T21:06:43.359Z,99.90
2018-12-15T21:09:12.409Z,99.90
2018-12-15T21:11:41.469Z,99.90
2018-12-15T21:14:10.543Z,99.90
2018-12-15T21:16:39.626Z,99.90
2018-12-15T21:19:08.684Z,99.90
2018-12-15T21:21:37.908Z,99.90
2018-12-15T21:24:06.980Z,99.90
2018-12-15T21:26:36.046Z,99.90
2018-12-15T21:29:05.158Z,99.90
2018-12-15T21:31:34.239Z,99.90
2018-12-15T21:34:07.832Z,99.90
2018-12-15T21:36:35.025Z,99.90
2018-12-15T21:39:06.063Z,99.90
2018-12-15T21:41:35.136Z,99.90
2018-12-15T21:44:04.177Z,99.90
2018-12-15T21:46:33.265Z,99.90
2018-12-15T21:49:02.331Z,99.90
2018-12-15T21:51:31.371Z,99.90
2018-12-15T21:54:00.436Z,99.90
2018-12-15T21:56:29.512Z,99.90
2018-12-15T21:58:59.038Z,99.90
2018-12-15T22:01:28.136Z,99.90
2018-12-15T22:03:57.210Z,99.90
2018-12-15T22:06:26.346Z,99.90
2018-12-15T22:08:55.388Z,99.90
2018-12-15T22:11:24.465Z,99.90
2018-12-15T22:13:53.533Z,99.90
2018-12-15T22:16:22.685Z,99.90
2018-12-15T22:18:51.725Z,99.90
2018-12-15T22:21:20.797Z,99.90
2018-12-15T22:23:49.877Z,99.90
2018-12-15T22:26:18.954Z,99.90
2018-12-15T22:28:48.025Z,99.90
2018-12-15T22:31:17.093Z,99.90
2018-12-15T22:33:46.182Z,99.90
2018-12-15T22:36:15.256Z,99.90
2018-12-15T22:38:44.340Z,99.90
2018-12-15T22:41:13.402Z,99.90
2018-12-15T22:43:42.439Z,99.90
2018-12-15T22:46:11.520Z,99.90
2018-12-15T22:48:40.608Z,99.90
2018-12-15T22:51:09.707Z,99.90
2018-12-15T22:53:38.792Z,99.90
2018-12-15T22:56:07.870Z,99.90
2018-12-15T22:58:36.934Z,99.90
2018-12-15T23:01:12.125Z,99.90
2018-12-15T23:03:41.273Z,99.90
2018-12-15T23:06:10.334Z,99.90
2018-12-15T23:08:40.093Z,99.90
2018-12-15T23:11:09.151Z,99.90
2018-12-15T23:13:38.182Z,99.90
2018-12-15T23:16:07.334Z,99.90
2018-12-15T23:18:36.353Z,99.90
2018-12-15T23:21:05.429Z,99.90
2018-12-15T23:23:34.482Z,99.90
2018-12-15T23:26:03.546Z,99.90
2018-12-15T23:28:32.581Z,99.90
2018-12-15T23:31:01.650Z,99.90
2018-12-15T23:33:30.701Z,99.90
2018-12-15T23:35:59.772Z,99.90
2018-12-15T23:38:28.826Z,99.90
2018-12-15T23:40:57.897Z,99.90
2018-12-15T23:43:26.945Z,99.90
2018-12-15T23:45:56.001Z,99.90
2018-12-15T23:48:25.087Z,99.90
2018-12-15T23:50:54.136Z,99.90
2018-12-15T23:53:23.209Z,99.90
2018-12-15T23:55:52.320Z,99.90
2018-12-15T23:58:21.686Z,99.90
